Terminal Aerodrome Forecast
Issued by NWS Sioux Falls, SD

Home | Current Version | Previous Version | Graphics & Text | Print | Product List | Glossary Off
Versions: 1 2 3 4 5 6 7 8 9 10 11 12 13 14 15 16 17 18

000
FTUS43 KFSD 251900 AAA
TAFHON
TAF AMD
KHON 251900Z 2519/2618 15014G20KT P6SM SCT150
     FM252300 14008KT P6SM BKN070
      TEMPO 2600/2603 4SM TSRA BKN035CB
     FM260500 13007KT P6SM SCT070 BKN250
     FM261000 13005KT 5SM BR BKN015
     FM261400 15004KT P6SM SCT015=

USA.gov is the U.S. government's official web portal to all federal, state and local government web resources and services.